Barlow, Alabama
Current Conditions -  °F | °C
As of 11:58 AM on Wednesday 26 Nov 2014 (Local Time) from KMEI Reporting Station
Clear Clear  
Wind Chill: 58°   Ceiling: Unl
Heat Index: 58°   Visibility: 10mi
Dew Point: 25°   Wind: 13mph
Humidity: 28%   Direction: 200°SSW
Pressure: 30.15"   Gusts: 20mph
Location:  31.6272°N, 88.354°W
Report Text: KMEI 261758Z 20011G17KT 10SM CLR 14/M04 A3015 RMK AO2 SLP210 T01441039 10144 21028 58028
Loading
Personal Weather Stations






























Interactive Weather Map New forecast layout! Learn more

10-Day Weather Forecast

Advertisements
Track Severe Weather on mobile